createdAt,value
2018-11-02T00:00:37.745Z,100646.30
2018-11-02T00:03:07.264Z,100648.90
2018-11-02T00:05:36.253Z,100648.11
2018-11-02T00:08:23.987Z,100647.28
2018-11-02T00:11:07.830Z,100655.02
2018-11-02T00:13:36.761Z,100655.84
2018-11-02T00:16:05.834Z,100654.49
2018-11-02T00:18:34.814Z,100656.36
2018-11-02T00:21:03.790Z,100669.74
2018-11-02T00:23:32.798Z,100666.81
2018-11-02T00:26:01.727Z,100666.02
2018-11-02T00:28:30.665Z,100666.55
2018-11-02T00:30:59.591Z,100659.67
2018-11-02T00:33:28.649Z,100652.88
2018-11-02T00:35:57.600Z,100654.95
2018-11-02T00:38:26.593Z,100662.05
2018-11-02T00:40:55.545Z,100647.25
2018-11-02T00:43:24.521Z,100651.11
2018-11-02T00:45:53.471Z,100652.42
2018-11-02T00:48:23.103Z,100655.54
2018-11-02T00:50:52.062Z,100658.50
2018-11-02T00:53:21.082Z,100651.56
2018-11-02T00:55:50.015Z,100663.09
2018-11-02T00:58:18.985Z,100660.09
2018-11-02T01:00:47.929Z,100660.09
2018-11-02T01:03:16.901Z,100660.20
2018-11-02T01:05:45.842Z,100664.41
2018-11-02T01:08:14.817Z,100658.39
2018-11-02T01:10:43.751Z,100661.70
2018-11-02T01:13:12.710Z,100673.88
2018-11-02T01:15:41.638Z,100683.97
2018-11-02T01:18:10.596Z,100684.16
2018-11-02T01:20:39.541Z,100673.61
2018-11-02T01:23:08.489Z,100676.09
2018-11-02T01:25:37.481Z,100685.89
2018-11-02T01:28:06.426Z,100684.16
2018-11-02T01:30:35.361Z,100681.27
2018-11-02T01:33:04.309Z,100693.25
2018-11-02T01:35:33.784Z,100700.12
2018-11-02T01:38:02.751Z,100700.91
2018-11-02T01:40:31.678Z,100705.79
2018-11-02T01:43:00.619Z,100698.75
2018-11-02T01:45:29.577Z,100702.39
2018-11-02T01:47:58.575Z,100702.39
2018-11-02T01:50:27.534Z,100707.32
2018-11-02T01:52:56.442Z,100713.41
2018-11-02T01:55:25.390Z,100704.97
2018-11-02T01:57:54.321Z,100705.91
2018-11-02T02:00:23.319Z,100712.59
2018-11-02T02:02:52.233Z,100707.11
2018-11-02T02:05:21.170Z,100712.03
2018-11-02T02:07:50.125Z,100716.35
2018-11-02T02:10:19.075Z,100703.42
2018-11-02T02:12:48.040Z,100698.55
2018-11-02T02:15:16.978Z,100684.87
2018-11-02T02:17:45.913Z,100681.95
2018-11-02T02:20:14.876Z,100685.06
2018-11-02T02:22:43.781Z,100687.50
2018-11-02T02:25:12.734Z,100691.33
2018-11-02T02:27:41.661Z,100698.46
2018-11-02T02:30:13.257Z,100712.13
2018-11-02T02:32:42.221Z,100708.22
2018-11-02T02:35:11.673Z,100709.99
2018-11-02T02:37:41.117Z,100706.24
2018-11-02T02:40:11.810Z,100704.92
2018-11-02T02:42:41.249Z,100711.56
2018-11-02T02:45:11.258Z,100714.11
2018-11-02T02:47:40.594Z,100722.06
2018-11-02T02:50:11.849Z,100721.95
2018-11-02T02:52:40.919Z,100731.66
2018-11-02T02:55:09.929Z,100732.16
2018-11-02T02:57:39.128Z,100732.48
2018-11-02T03:00:10.480Z,100743.97
2018-11-02T03:02:39.383Z,100742.45
2018-11-02T03:05:08.585Z,100742.28
2018-11-02T03:07:37.509Z,100746.23
2018-11-02T03:10:06.604Z,100752.53
2018-11-02T03:12:35.533Z,100760.57
2018-11-02T03:15:04.758Z,100755.79
2018-11-02T03:17:33.670Z,100760.52
2018-11-02T03:20:02.691Z,100770.41
2018-11-02T03:22:31.621Z,100773.88
2018-11-02T03:25:00.519Z,100778.56
2018-11-02T03:27:29.438Z,100782.02
2018-11-02T03:29:58.366Z,100787.09
2018-11-02T03:32:27.304Z,100775.97
2018-11-02T03:34:56.255Z,100772.96
2018-11-02T03:37:25.287Z,100778.07
2018-11-02T03:39:54.282Z,100773.41
2018-11-02T03:42:23.157Z,100780.09
2018-11-02T03:44:52.081Z,100774.48
2018-11-02T03:47:21.038Z,100789.80
2018-11-02T03:49:49.980Z,100788.03
2018-11-02T03:52:18.914Z,100794.48
2018-11-02T03:54:47.835Z,100800.92
2018-11-02T03:57:16.836Z,100804.51
2018-11-02T03:59:45.749Z,100807.60
2018-11-02T04:02:14.747Z,100808.46
2018-11-02T04:04:43.666Z,100812.38
2018-11-02T04:07:12.649Z,100811.64
2018-11-02T04:09:41.667Z,100817.25
2018-11-02T04:12:10.508Z,100827.67
2018-11-02T04:14:39.483Z,100837.44
2018-11-02T04:17:08.418Z,100835.17
2018-11-02T04:19:37.459Z,100834.67
2018-11-02T04:22:06.406Z,100831.38
2018-11-02T04:24:35.321Z,100837.14
2018-11-02T04:27:04.294Z,100827.24
2018-11-02T04:29:33.207Z,100842.45
2018-11-02T04:32:02.141Z,100852.77
2018-11-02T04:34:31.072Z,100850.24
2018-11-02T04:37:00.000Z,100845.55
2018-11-02T04:39:28.911Z,100842.70
2018-11-02T04:41:57.853Z,100847.92
2018-11-02T04:44:26.798Z,100847.89
2018-11-02T04:46:55.719Z,100845.67
2018-11-02T04:49:24.659Z,100845.75
2018-11-02T04:51:53.573Z,100841.13
2018-11-02T04:54:22.491Z,100846.65
2018-11-02T04:56:51.443Z,100858.42
2018-11-02T04:59:20.365Z,100863.08
2018-11-02T05:01:49.314Z,100866.95
2018-11-02T05:04:18.246Z,100877.55
2018-11-02T05:06:47.247Z,100877.56
2018-11-02T05:09:16.214Z,100883.61
2018-11-02T05:11:45.151Z,100887.11
2018-11-02T05:14:14.088Z,100895.58
2018-11-02T05:16:43.010Z,100895.76
2018-11-02T05:19:12.014Z,100905.46
2018-11-02T05:21:40.958Z,100919.48
2018-11-02T05:24:09.881Z,100919.08
2018-11-02T05:26:38.897Z,100925.92
2018-11-02T05:29:07.802Z,100931.15
2018-11-02T05:31:36.769Z,100944.23
2018-11-02T05:34:06.575Z,100944.77
2018-11-02T05:36:35.539Z,100943.94
2018-11-02T05:39:07.409Z,100940.59
2018-11-02T05:41:36.413Z,100959.89
2018-11-02T05:44:05.945Z,100953.30
2018-11-02T05:46:34.954Z,100967.38
2018-11-02T05:49:03.893Z,100974.92
2018-11-02T05:51:33.068Z,100980.73
2018-11-02T05:54:01.972Z,100985.84
2018-11-02T05:56:30.965Z,100993.39
2018-11-02T05:58:59.869Z,100994.17
2018-11-02T06:01:28.887Z,101015.52
2018-11-02T06:03:57.758Z,101016.66
2018-11-02T06:06:26.692Z,101023.67
2018-11-02T06:08:55.693Z,101027.22
2018-11-02T06:11:24.587Z,101033.65
2018-11-02T06:13:53.590Z,101034.06
2018-11-02T06:16:22.498Z,101038.16
2018-11-02T06:18:51.522Z,101041.66
2018-11-02T06:21:20.443Z,101052.42
2018-11-02T06:23:49.425Z,101052.47
2018-11-02T06:26:18.339Z,101053.41
2018-11-02T06:28:47.274Z,101057.25
2018-11-02T06:31:16.205Z,101070.50
2018-11-02T06:33:45.713Z,101080.66
2018-11-02T06:36:14.617Z,101098.57
2018-11-02T06:38:43.612Z,101104.64
2018-11-02T06:41:12.473Z,101112.69
2018-11-02T06:43:41.455Z,101115.79
2018-11-02T06:46:10.378Z,101126.93
2018-11-02T06:48:39.311Z,101137.22
2018-11-02T06:51:08.426Z,101131.84
2018-11-02T06:53:37.731Z,101135.94
2018-11-02T06:56:06.885Z,101148.11
2018-11-02T06:58:35.818Z,101151.16
2018-11-02T07:01:05.057Z,101151.45
2018-11-02T07:03:33.979Z,101164.15
2018-11-02T07:06:02.894Z,101165.98
2018-11-02T07:08:32.003Z,101174.80
2018-11-02T07:11:00.838Z,101184.50
2018-11-02T07:13:29.826Z,101181.03
2018-11-02T07:16:10.549Z,101195.73
2018-11-02T07:18:40.285Z,101202.28
2018-11-02T07:21:09.216Z,101210.83
2018-11-02T07:23:38.116Z,101212.51
2018-11-02T07:26:07.008Z,101218.81
2018-11-02T07:28:36.011Z,101220.51
2018-11-02T07:31:05.046Z,101227.09
2018-11-02T07:33:33.957Z,101236.95
2018-11-02T07:36:02.848Z,101239.14
2018-11-02T07:38:31.802Z,101245.77
2018-11-02T07:41:00.705Z,101240.75
2018-11-02T07:43:29.633Z,101244.22
2018-11-02T07:45:58.624Z,101246.82
2018-11-02T07:48:27.550Z,101245.91
2018-11-02T07:50:56.459Z,101242.34
2018-11-02T07:53:25.399Z,101236.77
2018-11-02T07:55:54.301Z,101245.89
2018-11-02T07:58:23.227Z,101251.09
2018-11-02T08:00:52.134Z,101257.14
2018-11-02T08:03:21.045Z,101262.71
2018-11-02T08:05:49.957Z,101269.78
2018-11-02T08:08:24.448Z,101279.65
2018-11-02T08:10:53.384Z,101279.30
2018-11-02T08:13:22.310Z,101282.77
2018-11-02T08:15:51.220Z,101281.37
2018-11-02T08:18:20.153Z,101284.98
2018-11-02T08:20:49.055Z,101299.92
2018-11-02T08:23:17.977Z,101306.59
2018-11-02T08:25:46.897Z,101304.59
2018-11-02T08:28:15.829Z,101312.85
2018-11-02T08:30:44.738Z,101311.63
2018-11-02T08:33:13.669Z,101320.91
2018-11-02T08:35:42.561Z,101317.38
2018-11-02T08:38:11.518Z,101316.47
2018-11-02T08:40:40.396Z,101320.53
2018-11-02T08:43:09.288Z,101324.38
2018-11-02T08:45:38.208Z,101336.29
2018-11-02T08:48:07.093Z,101342.19
2018-11-02T08:50:36.020Z,101345.37
2018-11-02T08:53:05.220Z,101346.70
2018-11-02T08:55:34.965Z,101343.19
2018-11-02T08:58:03.919Z,101346.02
2018-11-02T09:00:32.804Z,101354.50
2018-11-02T09:03:01.700Z,101359.70
2018-11-02T09:05:30.627Z,101356.05
2018-11-02T09:07:59.524Z,101359.31
2018-11-02T09:10:28.441Z,101359.27
2018-11-02T09:12:57.349Z,101360.81
2018-11-02T09:15:26.257Z,101357.94
2018-11-02T09:17:55.181Z,101355.55
2018-11-02T09:20:24.129Z,101355.48
2018-11-02T09:22:53.021Z,101360.73
2018-11-02T09:25:21.949Z,101369.45
2018-11-02T09:27:50.879Z,101381.30
2018-11-02T09:30:19.774Z,101393.37
2018-11-02T09:32:48.685Z,101385.91
2018-11-02T09:35:17.594Z,101397.45
2018-11-02T09:37:46.529Z,101401.25
2018-11-02T09:40:15.444Z,101403.63
2018-11-02T09:42:44.400Z,101408.02
2018-11-02T09:45:14.457Z,101418.41
2018-11-02T09:47:44.016Z,101416.56
2018-11-02T09:50:13.334Z,101425.45
2018-11-02T09:52:42.241Z,101432.55
2018-11-02T09:55:13.166Z,101434.43
2018-11-02T09:57:42.716Z,101440.84
2018-11-02T10:00:12.666Z,101443.58
2018-11-02T10:02:41.777Z,101443.70
2018-11-02T10:05:11.774Z,101446.93
2018-11-02T10:07:41.573Z,101452.02
2018-11-02T10:10:11.914Z,101461.71
2018-11-02T10:12:41.162Z,101470.04
2018-11-02T10:15:12.349Z,101478.88
2018-11-02T10:17:41.398Z,101480.23
2018-11-02T10:20:11.181Z,101485.91
2018-11-02T10:22:40.141Z,101486.92
2018-11-02T10:25:09.965Z,101488.78
2018-11-02T10:27:39.360Z,101495.95
2018-11-02T10:30:09.973Z,101488.73
2018-11-02T10:32:39.145Z,101500.37
2018-11-02T10:35:08.986Z,101509.88
2018-11-02T10:37:38.333Z,101512.86
2018-11-02T10:40:10.001Z,101516.25
2018-11-02T10:42:40.320Z,101521.31
2018-11-02T10:45:09.238Z,101519.94
2018-11-02T10:47:38.162Z,101528.23
2018-11-02T10:50:07.294Z,101525.37
2018-11-02T10:52:36.186Z,101531.59
2018-11-02T10:55:05.287Z,101535.03
2018-11-02T10:57:34.190Z,101530.33
2018-11-02T11:00:03.090Z,101536.00
2018-11-02T11:02:37.134Z,101545.44
2018-11-02T11:05:07.053Z,101545.99
2018-11-02T11:07:35.965Z,101550.89
2018-11-02T11:10:07.302Z,101553.31
2018-11-02T11:12:36.361Z,101553.83
2018-11-02T11:15:05.473Z,101557.07
2018-11-02T11:17:34.446Z,101558.48
2018-11-02T11:20:03.386Z,101565.46
2018-11-02T11:22:32.314Z,101563.30
2018-11-02T11:25:01.218Z,101565.22
2018-11-02T11:27:30.138Z,101569.44
2018-11-02T11:29:59.021Z,101574.16
2018-11-02T11:32:28.013Z,101578.09
2018-11-02T11:34:57.416Z,101583.22
2018-11-02T11:37:26.352Z,101585.65
2018-11-02T11:39:55.237Z,101595.42
2018-11-02T11:42:24.161Z,101601.48
2018-11-02T11:44:53.082Z,101607.36
2018-11-02T11:47:21.985Z,101604.98
2018-11-02T11:49:50.912Z,101604.80
2018-11-02T11:52:19.813Z,101606.59
2018-11-02T11:54:48.706Z,101610.61
2018-11-02T11:57:17.982Z,101600.36
2018-11-02T11:59:46.888Z,101601.55
2018-11-02T12:02:15.859Z,101603.70
2018-11-02T12:04:44.801Z,101606.95
2018-11-02T12:07:13.881Z,101607.53
2018-11-02T12:09:42.794Z,101605.22
2018-11-02T12:12:11.725Z,101606.25
2018-11-02T12:14:40.677Z,101611.59
2018-11-02T12:17:09.562Z,101611.52
2018-11-02T12:19:38.476Z,101609.28
2018-11-02T12:22:07.372Z,101601.00
2018-11-02T12:24:36.289Z,101612.18
2018-11-02T12:27:05.291Z,101615.87
2018-11-02T12:29:34.186Z,101616.65
2018-11-02T12:32:03.189Z,101611.05
2018-11-02T12:34:32.089Z,101613.08
2018-11-02T12:37:01.022Z,101621.11
2018-11-02T12:39:29.978Z,101632.02
2018-11-02T12:41:58.888Z,101647.34
2018-11-02T12:44:27.888Z,101650.75
2018-11-02T12:46:56.790Z,101666.52
2018-11-02T12:49:25.994Z,101659.92
2018-11-02T12:51:54.622Z,101659.23
2018-11-02T12:54:23.635Z,101657.27
2018-11-02T12:56:52.569Z,101660.75
2018-11-02T12:59:21.498Z,101657.03
2018-11-02T13:01:50.409Z,101663.51
2018-11-02T13:04:19.344Z,101665.58
2018-11-02T13:06:49.033Z,101661.81
2018-11-02T13:09:18.016Z,101663.57
2018-11-02T13:11:46.881Z,101662.28
2018-11-02T13:14:15.820Z,101667.28
2018-11-02T13:16:44.723Z,101659.75
2018-11-02T13:19:13.738Z,101660.93
2018-11-02T13:21:42.760Z,101669.08
2018-11-02T13:24:11.674Z,101673.30
2018-11-02T13:26:40.685Z,101678.20
2018-11-02T13:29:09.650Z,101676.47
2018-11-02T13:31:38.616Z,101679.23
2018-11-02T13:34:07.594Z,101681.43
2018-11-02T13:36:36.660Z,101690.57
2018-11-02T13:39:08.567Z,101689.38
2018-11-02T13:41:37.518Z,101690.34
2018-11-02T13:44:07.085Z,101692.00
2018-11-02T13:46:36.029Z,101695.39
2018-11-02T13:49:05.321Z,101699.37
2018-11-02T13:51:34.253Z,101698.37
2018-11-02T13:54:03.286Z,101704.72
2018-11-02T13:56:33.130Z,101618.64
2018-11-02T13:59:02.128Z,101716.20
2018-11-02T14:01:31.106Z,101721.33
2018-11-02T14:04:00.881Z,101711.74
2018-11-02T14:06:29.805Z,101720.42
2018-11-02T14:08:58.945Z,101720.42
2018-11-02T14:11:27.948Z,101722.39
2018-11-02T14:13:56.918Z,101726.43
2018-11-02T14:16:25.889Z,101728.08
2018-11-02T14:18:54.850Z,101739.87
2018-11-02T14:21:23.810Z,101748.44
2018-11-02T14:23:52.802Z,101756.73
2018-11-02T14:26:21.777Z,101767.98
2018-11-02T14:28:50.716Z,101771.36
2018-11-02T14:31:19.654Z,101774.84
2018-11-02T14:33:48.698Z,101785.98
2018-11-02T14:36:17.646Z,101789.33
2018-11-02T14:38:46.781Z,101792.63
2018-11-02T14:41:15.808Z,101803.30
2018-11-02T14:43:44.733Z,101813.08
2018-11-02T14:46:13.710Z,101816.73
2018-11-02T14:48:42.648Z,101818.53
2018-11-02T14:51:11.623Z,101815.80
2018-11-02T14:53:40.613Z,101824.53
2018-11-02T14:56:09.573Z,101823.83
2018-11-02T14:58:38.566Z,101825.53
2018-11-02T15:01:07.553Z,101828.50
2018-11-02T15:03:36.493Z,101831.12
2018-11-02T15:06:05.923Z,101833.63
2018-11-02T15:08:34.842Z,101841.27
2018-11-02T15:11:03.790Z,101848.61
2018-11-02T15:13:32.714Z,101848.83
2018-11-02T15:16:01.655Z,101845.75
2018-11-02T15:18:30.572Z,101852.47
2018-11-02T15:20:59.534Z,101852.47
2018-11-02T15:23:28.448Z,101858.00
2018-11-02T15:25:57.382Z,101862.73
2018-11-02T15:28:26.329Z,101866.25
2018-11-02T15:30:55.298Z,101884.62
2018-11-02T15:33:24.258Z,101884.16
2018-11-02T15:35:53.190Z,101883.27
2018-11-02T15:38:22.154Z,101884.55
2018-11-02T15:40:51.178Z,101883.56
2018-11-02T15:43:20.147Z,101887.24
2018-11-02T15:45:49.057Z,101887.55
2018-11-02T15:48:18.006Z,101884.30
2018-11-02T15:50:47.020Z,101886.98
2018-11-02T15:53:16.065Z,101877.95
2018-11-02T15:55:44.952Z,101883.89
2018-11-02T15:58:13.877Z,101881.20
2018-11-02T16:00:42.891Z,101884.66
2018-11-02T16:03:12.573Z,101884.99
2018-11-02T16:05:42.284Z,101887.37
2018-11-02T16:08:11.834Z,101892.97
2018-11-02T16:10:41.305Z,101898.09
2018-11-02T16:13:10.935Z,101896.17
2018-11-02T16:15:40.495Z,101893.71
2018-11-02T16:18:10.252Z,101896.27
2018-11-02T16:20:39.756Z,101892.45
2018-11-02T16:23:09.555Z,101901.48
2018-11-02T16:25:38.938Z,101903.68
2018-11-02T16:28:08.326Z,101904.96
2018-11-02T16:30:37.895Z,101910.27
2018-11-02T16:33:07.628Z,101909.88
2018-11-02T16:35:37.366Z,101915.63
2018-11-02T16:38:06.987Z,101922.39
2018-11-02T16:40:36.271Z,101918.28
2018-11-02T16:43:05.839Z,101924.75
2018-11-02T16:45:35.785Z,101936.91
2018-11-02T16:48:06.064Z,101918.80
2018-11-02T16:50:35.501Z,101935.37
2018-11-02T16:53:05.160Z,101930.24
2018-11-02T16:55:34.219Z,101933.27
2018-11-02T16:58:03.687Z,101940.38
2018-11-02T17:00:33.338Z,101935.18
2018-11-02T17:03:02.952Z,101939.40
2018-11-02T17:05:32.499Z,101946.02
2018-11-02T17:08:02.032Z,101950.45
2018-11-02T17:10:31.767Z,101953.13
2018-11-02T17:13:01.739Z,101960.43
2018-11-02T17:15:31.293Z,101963.00
2018-11-02T17:18:01.820Z,101975.18
2018-11-02T17:20:31.428Z,101974.44
2018-11-02T17:23:01.023Z,101978.28
2018-11-02T17:25:30.559Z,101982.54
2018-11-02T17:28:00.032Z,101985.05
2018-11-02T17:30:29.366Z,101985.97
2018-11-02T17:32:59.105Z,101994.08
2018-11-02T17:35:28.544Z,101996.97
2018-11-02T17:37:58.062Z,101992.72
2018-11-02T17:40:27.625Z,101999.02
2018-11-02T17:42:57.207Z,102004.47
2018-11-02T17:45:26.906Z,102003.95
2018-11-02T17:47:56.623Z,102011.89
2018-11-02T17:50:26.072Z,102015.33
2018-11-02T17:52:55.465Z,102011.42
2018-11-02T17:55:25.107Z,102012.71
2018-11-02T17:57:54.890Z,102014.75
2018-11-02T18:00:25.348Z,102023.86
2018-11-02T18:02:54.961Z,102022.14
2018-11-02T18:05:24.717Z,102026.86
2018-11-02T18:07:54.802Z,102034.55
2018-11-02T18:10:24.397Z,102033.63
2018-11-02T18:12:55.056Z,102034.09
2018-11-02T18:15:24.534Z,102035.31
2018-11-02T18:17:55.072Z,102045.08
2018-11-02T18:20:24.104Z,102051.16
2018-11-02T18:22:53.032Z,102050.97
2018-11-02T18:25:21.970Z,102050.21
2018-11-02T18:27:50.961Z,102053.23
2018-11-02T18:30:19.949Z,102056.15
2018-11-02T18:32:48.886Z,102057.34
2018-11-02T18:35:17.867Z,102062.35
2018-11-02T18:37:46.735Z,102067.39
2018-11-02T18:40:15.654Z,102075.89
2018-11-02T18:42:45.371Z,102088.70
2018-11-02T18:45:15.299Z,102094.34
2018-11-02T18:47:46.780Z,102089.00
2018-11-02T18:50:17.016Z,102099.09
2018-11-02T18:52:46.649Z,102109.81
2018-11-02T18:55:15.728Z,102109.81
2018-11-02T18:57:44.744Z,102110.44
2018-11-02T19:00:13.837Z,102115.36
2018-11-02T19:02:42.734Z,102118.99
2018-11-02T19:05:14.553Z,102121.33
2018-11-02T19:07:43.501Z,102121.55
2018-11-02T19:10:12.633Z,102123.92
2018-11-02T19:12:42.391Z,102134.06
2018-11-02T19:15:13.135Z,102138.64
2018-11-02T19:17:42.333Z,102141.34
2018-11-02T19:20:12.124Z,102143.96
2018-11-02T19:22:40.977Z,102139.41
2018-11-02T19:25:11.237Z,102143.81
2018-11-02T19:27:40.276Z,102152.37
2018-11-02T19:30:10.858Z,102155.90
2018-11-02T19:32:39.898Z,102150.38
2018-11-02T19:35:09.168Z,102155.16
2018-11-02T19:37:38.013Z,102139.95
2018-11-02T19:40:09.077Z,102148.13
2018-11-02T19:42:38.349Z,102152.44
2018-11-02T19:45:08.143Z,102149.63
2018-11-02T19:47:42.576Z,102156.44
2018-11-02T19:50:13.837Z,102158.46
2018-11-02T19:52:42.765Z,102156.20
2018-11-02T19:55:12.647Z,102153.48
2018-11-02T19:57:42.776Z,102155.48
2018-11-02T20:00:13.397Z,102151.17
2018-11-02T20:02:42.597Z,102159.89
2018-11-02T20:05:13.630Z,102158.78
2018-11-02T20:07:42.936Z,102163.48
2018-11-02T20:10:12.934Z,102163.20
2018-11-02T20:12:42.373Z,102163.48
2018-11-02T20:15:12.374Z,102164.02
2018-11-02T20:17:41.589Z,102166.17
2018-11-02T20:20:12.725Z,102176.00
2018-11-02T20:22:41.710Z,102180.48
2018-11-02T20:25:12.732Z,102174.11
2018-11-02T20:27:41.693Z,102178.19
2018-11-02T20:30:13.003Z,102178.56
2018-11-02T20:32:42.606Z,102186.41
2018-11-02T20:35:11.533Z,102187.21
2018-11-02T20:37:40.678Z,102192.09
2018-11-02T20:40:12.153Z,102184.98
2018-11-02T20:42:41.629Z,102192.79
2018-11-02T20:45:10.609Z,102185.82
2018-11-02T20:47:44.949Z,102193.70
2018-11-02T20:50:13.965Z,102196.27
2018-11-02T20:52:42.881Z,102197.77
2018-11-02T20:55:13.039Z,102204.06
2018-11-02T20:57:42.542Z,102208.35
2018-11-02T21:00:14.368Z,102208.65
2018-11-02T21:02:43.857Z,102209.90
2018-11-02T21:05:13.713Z,102213.66
2018-11-02T21:07:42.936Z,102220.75
2018-11-02T21:10:13.013Z,102227.40
2018-11-02T21:12:41.948Z,102229.81
2018-11-02T21:15:14.598Z,102232.06
2018-11-02T21:17:43.525Z,102234.36
2018-11-02T21:20:15.860Z,102237.57
2018-11-02T21:22:44.825Z,102233.51
2018-11-02T21:25:14.348Z,102240.96
2018-11-02T21:27:43.957Z,102245.50
2018-11-02T21:30:19.184Z,102249.52
2018-11-02T21:32:48.682Z,102255.98
2018-11-02T21:35:18.189Z,102256.86
2018-11-02T21:37:47.486Z,102262.78
2018-11-02T21:40:17.818Z,102250.28
2018-11-02T21:42:46.821Z,102252.25
2018-11-02T21:45:17.131Z,102256.73
2018-11-02T21:47:46.423Z,102245.81
2018-11-02T21:50:15.776Z,102247.01
2018-11-02T21:52:44.738Z,102246.06
2018-11-02T21:55:13.725Z,102255.64
2018-11-02T21:57:42.637Z,102254.14
2018-11-02T22:00:15.426Z,102267.38
2018-11-02T22:02:44.593Z,102267.52
2018-11-02T22:05:14.012Z,102263.44
2018-11-02T22:07:44.439Z,102261.90
2018-11-02T22:10:13.704Z,102263.45
2018-11-02T22:12:42.715Z,102265.48
2018-11-02T22:15:11.660Z,102267.56
2018-11-02T22:17:41.180Z,102270.72
2018-11-02T22:20:11.501Z,102271.11
2018-11-02T22:22:40.705Z,102266.93
2018-11-02T22:25:10.456Z,102261.70
2018-11-02T22:27:39.409Z,102262.50
2018-11-02T22:30:11.714Z,102266.20
2018-11-02T22:32:40.751Z,102273.41
2018-11-02T22:35:09.782Z,102269.78
2018-11-02T22:37:38.733Z,102262.67
2018-11-02T22:40:09.191Z,102262.03
2018-11-02T22:42:38.583Z,102264.77
2018-11-02T22:45:08.124Z,102262.48
2018-11-02T22:47:37.087Z,102258.66
2018-11-02T22:50:06.737Z,102258.38
2018-11-02T22:52:35.754Z,102256.70
2018-11-02T22:55:04.728Z,102261.32
2018-11-02T22:57:33.639Z,102270.03
2018-11-02T23:00:02.663Z,102269.05
2018-11-02T23:02:31.755Z,102273.41
2018-11-02T23:05:01.018Z,102268.14
2018-11-02T23:07:29.944Z,102268.97
2018-11-02T23:09:59.009Z,102275.97
2018-11-02T23:12:28.125Z,102274.95
2018-11-02T23:14:57.088Z,102258.27
2018-11-02T23:17:26.069Z,102276.94
2018-11-02T23:19:55.581Z,102284.94
2018-11-02T23:22:24.879Z,102285.59
2018-11-02T23:24:53.837Z,102285.91
2018-11-02T23:27:22.785Z,102297.38
2018-11-02T23:29:51.763Z,102297.38
2018-11-02T23:32:20.645Z,102294.69
2018-11-02T23:34:49.583Z,102295.97
2018-11-02T23:37:18.539Z,102292.97
2018-11-02T23:39:51.561Z,102294.89
2018-11-02T23:42:21.856Z,102287.87
2018-11-02T23:44:53.393Z,102282.89
2018-11-02T23:47:22.282Z,102277.63
2018-11-02T23:49:51.221Z,102287.81
2018-11-02T23:52:20.350Z,102287.25
2018-11-02T23:54:49.357Z,102279.91
2018-11-02T23:57:18.290Z,102284.95
2018-11-02T23:59:47.202Z,102282.72
